Time;durP1;ratioP1;P1;durP2;ratioP2;P2;SDS_P1;SDS_P2;PMS_P1;PMS_P2;Temp;Humidity;BMP_temperature;BMP_pressure;BME280_temperature;BME280_humidity;BME280_pressure;Samples;Min_cycle;Max_cycle;Signal;HPM_P1;HPM_P2
2021/06/12 00:00:25;;;;;;;51.13;24.33;;;16.00;99.90;;;;;;4975243;28;20035;-80
2021/06/12 00:02:51;;;;;;;49.05;24.85;;;16.00;99.90;;;;;;4974114;28;20579;-80
2021/06/12 00:05:17;;;;;;;54.40;25.13;;;16.00;99.90;;;;;;4974767;28;20122;-80
2021/06/12 00:07:42;;;;;;;48.97;25.08;;;16.00;99.90;;;;;;4974929;28;20062;-80
2021/06/12 00:10:15;;;;;;;56.90;25.20;;;16.00;99.90;;;;;;4975231;28;20033;-80
2021/06/12 00:12:42;;;;;;;51.60;25.73;;;16.00;99.90;;;;;;4975353;28;20069;-80
2021/06/12 00:15:10;;;;;;;57.92;24.20;;;16.10;99.90;;;;;;4974827;28;20062;-80
2021/06/12 00:17:36;;;;;;;51.40;25.48;;;16.00;99.90;;;;;;4973757;28;20443;-80
2021/06/12 00:20:05;;;;;;;43.85;22.80;;;16.10;99.90;;;;;;4975181;28;20054;-80
2021/06/12 00:22:31;;;;;;;48.13;24.08;;;16.00;99.90;;;;;;4973572;28;20077;-80
2021/06/12 00:24:57;;;;;;;45.97;23.98;;;16.10;99.90;;;;;;4974564;28;20491;-80
2021/06/12 00:27:22;;;;;;;44.65;24.30;;;16.10;99.90;;;;;;4974196;28;20031;-80
2021/06/12 00:29:49;;;;;;;48.38;22.88;;;15.90;99.90;;;;;;4974750;28;20089;-80
2021/06/12 00:32:15;;;;;;;51.80;23.38;;;16.00;99.90;;;;;;4974020;28;20014;-80
2021/06/12 00:34:40;;;;;;;44.33;21.77;;;16.10;99.90;;;;;;4974605;28;20033;-80
2021/06/12 00:37:06;;;;;;;46.53;23.08;;;16.00;99.90;;;;;;4974768;28;20038;-79
2021/06/12 00:39:32;;;;;;;44.78;22.48;;;16.00;99.90;;;;;;4974612;28;20081;-80
2021/06/12 00:41:58;;;;;;;49.95;23.45;;;16.00;99.90;;;;;;4973775;28;20038;-81
2021/06/12 00:44:24;;;;;;;41.60;22.80;;;16.00;99.90;;;;;;4974256;28;20034;-80
2021/06/12 00:46:50;;;;;;;46.58;23.77;;;15.90;99.90;;;;;;4974203;28;20030;-80
2021/06/12 00:49:16;;;;;;;47.80;23.88;;;15.90;99.90;;;;;;4974316;28;20357;-80
2021/06/12 00:51:41;;;;;;;48.03;23.60;;;15.90;99.90;;;;;;4974532;28;20029;-79
2021/06/12 00:54:07;;;;;;;48.38;25.15;;;15.90;99.90;;;;;;4989642;28;20098;-80
2021/06/12 00:56:32;;;;;;;46.45;24.25;;;15.80;99.90;;;;;;4974073;28;20038;-80
2021/06/12 00:58:58;;;;;;;48.30;24.83;;;15.80;99.90;;;;;;4973087;28;20030;-80
2021/06/12 01:01:24;;;;;;;49.22;26.63;;;15.80;99.90;;;;;;4974443;28;20143;-78
2021/06/12 01:03:49;;;;;;;51.13;25.75;;;15.70;99.90;;;;;;4973793;28;20031;-79
2021/06/12 01:06:21;;;;;;;50.50;26.23;;;15.70;99.90;;;;;;4973989;28;20074;-79
2021/06/12 01:08:47;;;;;;;56.70;27.60;;;15.70;99.90;;;;;;4972536;28;20119;-80
2021/06/12 01:11:13;;;;;;;63.53;28.95;;;15.70;99.90;;;;;;4973877;28;20480;-79
2021/06/12 01:14:01;;;;;;;47.15;25.70;;;15.80;99.90;;;;;;4973677;28;20109;-79
2021/06/12 01:17:13;;;;;;;51.55;25.63;;;15.60;99.90;;;;;;4973837;28;20495;-79
2021/06/12 01:19:57;;;;;;;51.90;25.35;;;15.60;99.90;;;;;;4948849;29;20055;-79
2021/06/12 01:22:28;;;;;;;51.55;27.77;;;15.60;99.90;;;;;;4954657;28;20027;-80
2021/06/12 01:25:07;;;;;;;48.42;25.95;;;15.50;99.90;;;;;;4954473;28;20432;-79
2021/06/12 01:28:13;;;;;;;47.28;26.20;;;15.50;99.90;;;;;;4956225;28;20055;-79
2021/06/12 01:30:42;;;;;;;53.60;26.95;;;15.50;99.90;;;;;;4932692;29;20047;-80
2021/06/12 01:33:10;;;;;;;57.10;27.30;;;15.50;99.90;;;;;;4932881;29;20123;-79
2021/06/12 01:35:51;;;;;;;53.95;26.35;;;15.50;99.90;;;;;;4943716;28;20041;-79
2021/06/12 01:38:23;;;;;;;46.65;24.85;;;15.40;99.90;;;;;;4973567;28;20026;-79
2021/06/12 01:40:50;;;;;;;54.50;25.08;;;15.50;99.90;;;;;;4973588;28;20027;-79
2021/06/12 01:43:18;;;;;;;55.47;25.55;;;15.40;99.90;;;;;;4973765;28;20042;-80
2021/06/12 01:45:46;;;;;;;53.70;26.55;;;15.50;99.90;;;;;;4972044;28;20121;-79
2021/06/12 01:48:13;;;;;;;53.05;25.20;;;15.50;99.90;;;;;;4973088;28;20530;-80
2021/06/12 01:50:40;;;;;;;52.50;27.33;;;15.50;99.90;;;;;;4973475;28;20038;-79
2021/06/12 01:53:07;;;;;;;49.85;24.10;;;15.50;99.90;;;;;;4974405;28;20034;-79
2021/06/12 01:55:35;;;;;;;55.25;26.60;;;15.60;99.90;;;;;;4973343;28;20110;-80
2021/06/12 01:58:04;;;;;;;55.78;23.92;;;15.50;99.90;;;;;;4973613;28;20023;-79
2021/06/12 02:00:30;;;;;;;38.78;21.27;;;15.50;99.90;;;;;;4988277;28;20031;-79
2021/06/12 02:02:58;;;;;;;41.47;22.45;;;15.60;99.90;;;;;;4973685;28;20484;-79
2021/06/12 02:05:24;;;;;;;44.08;22.95;;;15.50;99.90;;;;;;4972466;28;20117;-79
2021/06/12 02:07:52;;;;;;;43.50;23.80;;;15.60;99.90;;;;;;4973180;28;20031;-80
2021/06/12 02:10:23;;;;;;;44.80;23.13;;;15.50;99.90;;;;;;4973190;28;20031;-80
2021/06/12 02:12:50;;;;;;;36.17;20.88;;;15.50;99.90;;;;;;4988016;28;20500;-80
2021/06/12 02:15:16;;;;;;;43.15;22.02;;;15.50;99.90;;;;;;4973250;28;20097;-79
2021/06/12 02:17:42;;;;;;;46.63;24.58;;;15.50;99.90;;;;;;4976023;28;20122;-80
2021/06/12 02:20:10;;;;;;;46.17;24.98;;;15.50;99.90;;;;;;4972507;28;20507;-79
2021/06/12 02:22:48;;;;;;;50.90;24.77;;;15.50;99.90;;;;;;4972353;28;20122;-80
2021/06/12 02:25:14;;;;;;;59.10;26.13;;;15.50;99.90;;;;;;4956573;28;20034;-79
2021/06/12 02:28:10;;;;;;;70.18;28.33;;;15.40;99.90;;;;;;4957378;28;20587;-80
2021/06/12 02:30:53;;;;;;;46.85;25.35;;;15.40;99.90;;;;;;4974707;28;20062;-79
2021/06/12 02:33:21;;;;;;;44.17;25.13;;;15.40;99.90;;;;;;4976861;28;20042;-80
2021/06/12 02:35:47;;;;;;;57.78;28.35;;;15.30;99.90;;;;;;4976491;28;20027;-79
2021/06/12 02:38:12;;;;;;;48.25;25.95;;;15.40;99.90;;;;;;4975328;28;20130;-79
2021/06/12 02:40:38;;;;;;;57.83;26.95;;;15.30;99.90;;;;;;4976158;28;20054;-80
2021/06/12 02:43:04;;;;;;;54.17;27.98;;;15.40;99.90;;;;;;4975405;28;20041;-80
2021/06/12 02:45:30;;;;;;;49.72;26.05;;;15.40;99.90;;;;;;4976161;28;20031;-80
2021/06/12 02:48:01;;;;;;;62.70;28.83;;;15.40;99.90;;;;;;4976494;28;20050;-80
2021/06/12 02:50:32;;;;;;;53.97;25.88;;;15.40;99.90;;;;;;4976126;28;20038;-79
2021/06/12 02:53:02;;;;;;;58.45;26.55;;;15.40;99.90;;;;;;4976326;28;20435;-79
2021/06/12 02:55:30;;;;;;;54.40;26.25;;;15.30;99.90;;;;;;4976104;28;20026;-79
2021/06/12 02:57:56;;;;;;;56.30;25.60;;;15.40;99.90;;;;;;4976172;28;20085;-80
2021/06/12 03:00:23;;;;;;;63.75;26.98;;;15.50;99.90;;;;;;4975930;28;20447;-79
2021/06/12 03:02:50;;;;;;;54.50;25.27;;;15.40;99.90;;;;;;4976267;28;20035;-79
2021/06/12 03:05:18;;;;;;;45.17;26.15;;;15.40;99.90;;;;;;4975930;28;20061;-79
2021/06/12 03:07:56;;;;;;;54.50;24.65;;;15.40;99.90;;;;;;4975840;28;20062;-79
2021/06/12 03:10:24;;;;;;;62.97;28.70;;;15.40;99.90;;;;;;4975841;28;20031;-79
2021/06/12 03:12:50;;;;;;;61.17;27.90;;;15.40;99.90;;;;;;4974803;28;20034;-79
2021/06/12 03:15:17;;;;;;;60.95;27.10;;;15.40;99.90;;;;;;4975771;28;20035;-80
2021/06/12 03:17:45;;;;;;;51.80;26.75;;;15.50;99.90;;;;;;4975858;28;20031;-79
2021/06/12 03:20:13;;;;;;;58.97;27.70;;;15.40;99.90;;;;;;4974357;28;20027;-80
2021/06/12 03:22:40;;;;;;;58.35;28.35;;;15.50;99.90;;;;;;4975552;28;20042;-80
2021/06/12 03:25:08;;;;;;;56.10;27.98;;;15.50;99.90;;;;;;4975143;28;20035;-80
2021/06/12 03:27:34;;;;;;;69.43;27.95;;;15.50;99.90;;;;;;4974633;28;20023;-79
2021/06/12 03:30:00;;;;;;;52.78;29.00;;;15.50;99.90;;;;;;4975801;28;20034;-79
2021/06/12 03:32:26;;;;;;;64.28;28.95;;;15.50;99.90;;;;;;4975465;28;20034;-80
2021/06/12 03:34:52;;;;;;;58.70;26.42;;;15.50;99.90;;;;;;4975505;28;20030;-79
2021/06/12 03:37:19;;;;;;;56.15;28.40;;;15.50;99.90;;;;;;4974392;28;20039;-79
2021/06/12 03:39:45;;;;;;;59.60;26.10;;;15.50;99.90;;;;;;4974219;28;20488;-80
2021/06/12 03:42:11;;;;;;;54.15;27.60;;;15.40;99.90;;;;;;4975375;28;20077;-79
2021/06/12 03:44:38;;;;;;;62.63;27.63;;;15.50;99.90;;;;;;4974171;28;20034;-80
2021/06/12 03:47:06;;;;;;;54.20;25.58;;;15.50;99.90;;;;;;4974118;28;20034;-78
2021/06/12 03:49:32;;;;;;;53.55;25.98;;;15.60;99.90;;;;;;4974021;28;20026;-80
2021/06/12 03:51:59;;;;;;;44.28;23.60;;;15.40;99.90;;;;;;4975082;28;20034;-80
2021/06/12 03:54:25;;;;;;;48.50;26.70;;;15.70;99.90;;;;;;4975098;28;20034;-79
2021/06/12 03:56:51;;;;;;;54.38;24.58;;;15.50;99.90;;;;;;4975402;28;20027;-79
2021/06/12 03:59:17;;;;;;;48.03;26.23;;;15.60;99.90;;;;;;4975121;28;20030;-79
2021/06/12 04:01:42;;;;;;;54.88;25.58;;;15.60;99.90;;;;;;4989749;28;20483;-79
2021/06/12 04:04:08;;;;;;;55.75;24.20;;;15.50;99.90;;;;;;4974829;28;20038;-79
2021/06/12 04:06:33;;;;;;;52.72;24.90;;;15.60;99.90;;;;;;4974973;28;20034;-80
2021/06/12 04:08:59;;;;;;;52.33;23.65;;;15.70;99.90;;;;;;4974866;28;20023;-79
2021/06/12 04:11:25;;;;;;;49.72;23.27;;;15.70;99.90;;;;;;4974756;28;20106;-79
2021/06/12 04:13:51;;;;;;;51.92;24.10;;;15.70;99.90;;;;;;4974696;28;20074;-79
2021/06/12 04:16:17;;;;;;;37.05;22.52;;;15.70;99.90;;;;;;4974917;28;20031;-79
2021/06/12 04:18:44;;;;;;;54.22;20.90;;;15.70;99.90;;;;;;4974739;28;20026;-79
2021/06/12 04:21:09;;;;;;;49.05;21.60;;;15.70;99.90;;;;;;4973112;28;20031;-79
2021/06/12 04:23:35;;;;;;;45.90;19.92;;;15.60;99.90;;;;;;4974661;28;20084;-79
2021/06/12 04:26:00;;;;;;;40.70;19.95;;;15.60;99.90;;;;;;4974440;28;20495;-79
2021/06/12 04:28:26;;;;;;;42.10;18.98;;;15.60;99.90;;;;;;4973333;28;20019;-79
2021/06/12 04:30:52;;;;;;;49.88;18.85;;;15.60;99.90;;;;;;4974584;28;20038;-79
2021/06/12 04:33:17;;;;;;;43.20;17.58;;;15.60;99.90;;;;;;4989138;28;20023;-79
2021/06/12 04:35:43;;;;;;;33.67;17.10;;;15.60;99.90;;;;;;4974301;28;20042;-79
2021/06/12 04:38:09;;;;;;;34.47;17.83;;;15.60;99.90;;;;;;4972840;28;20046;-80
2021/06/12 04:40:36;;;;;;;37.67;16.77;;;15.60;99.90;;;;;;4974368;28;20476;-79
2021/06/12 04:43:05;;;;;;;37.80;14.43;;;15.60;99.90;;;;;;4974111;28;20629;-80
2021/06/12 04:45:31;;;;;;;37.53;14.63;;;15.50;99.90;;;;;;4974031;28;20027;-79
2021/06/12 04:47:56;;;;;;;33.80;14.93;;;15.60;99.90;;;;;;4974209;28;20025;-79
2021/06/12 04:50:22;;;;;;;35.97;14.85;;;15.60;99.90;;;;;;4989178;28;20571;-79
2021/06/12 04:52:47;;;;;;;36.90;14.50;;;15.70;99.90;;;;;;4972642;28;20495;-79
2021/06/12 04:55:13;;;;;;;35.25;14.57;;;15.50;99.90;;;;;;4973999;28;20387;-79
2021/06/12 04:57:40;;;;;;;34.58;12.13;;;15.60;99.90;;;;;;4989031;28;20027;-79
2021/06/12 05:00:09;;;;;;;25.00;11.38;;;15.70;99.90;;;;;;4974121;28;20029;-79
2021/06/12 05:02:35;;;;;;;28.83;13.05;;;15.70;99.90;;;;;;4973763;28;20054;-79
2021/06/12 05:05:01;;;;;;;36.30;13.55;;;15.70;99.90;;;;;;4972466;28;20069;-80
2021/06/12 05:07:26;;;;;;;28.17;12.70;;;15.70;99.90;;;;;;4974096;28;20022;-79
2021/06/12 05:09:52;;;;;;;35.85;11.43;;;15.70;99.90;;;;;;4973932;28;20019;-79
2021/06/12 05:12:18;;;;;;;25.45;10.70;;;15.70;99.90;;;;;;4973786;28;20404;-79
2021/06/12 05:14:46;;;;;;;25.55;9.80;;;15.70;99.90;;;;;;4973377;28;20034;-79
2021/06/12 05:17:15;;;;;;;33.38;10.98;;;15.70;99.90;;;;;;4972480;28;20031;-79
2021/06/12 05:19:40;;;;;;;30.75;9.30;;;15.70;99.90;;;;;;4988522;28;20046;-80
2021/06/12 05:22:06;;;;;;;32.15;9.88;;;15.70;99.90;;;;;;4973653;28;20066;-80
2021/06/12 05:24:33;;;;;;;27.55;9.10;;;15.70;99.90;;;;;;4973081;28;20027;-80
2021/06/12 05:26:59;;;;;;;24.42;9.40;;;15.70;99.90;;;;;;4968887;28;20031;-80
2021/06/12 05:29:26;;;;;;;24.25;9.77;;;15.70;99.90;;;;;;4969093;28;20381;-80
2021/06/12 05:31:52;;;;;;;40.03;10.57;;;15.70;99.90;;;;;;4969033;28;20071;-79
2021/06/12 05:34:17;;;;;;;32.55;9.45;;;15.70;99.90;;;;;;4963946;28;20492;-80
2021/06/12 05:36:43;;;;;;;24.88;8.38;;;15.70;99.90;;;;;;4973328;28;20039;-80
2021/06/12 05:39:09;;;;;;;22.98;8.07;;;15.70;99.90;;;;;;4973396;28;20023;-80
2021/06/12 05:41:35;;;;;;;24.40;7.70;;;15.80;99.90;;;;;;4972094;28;20031;-80
2021/06/12 05:44:00;;;;;;;31.63;8.85;;;15.80;99.90;;;;;;4972969;28;20583;-79
2021/06/12 05:46:26;;;;;;;22.80;8.02;;;15.80;99.90;;;;;;4973241;28;20027;-81
2021/06/12 05:48:52;;;;;;;29.00;6.82;;;15.80;99.90;;;;;;4973138;28;20026;-79
2021/06/12 05:51:17;;;;;;;21.17;6.32;;;15.70;99.90;;;;;;4972757;28;20050;-79
2021/06/12 05:53:43;;;;;;;24.08;6.60;;;15.80;99.90;;;;;;4973015;28;20125;-80
2021/06/12 05:56:08;;;;;;;17.85;5.50;;;15.80;99.90;;;;;;4953812;28;20039;-80
2021/06/12 05:58:34;;;;;;;30.33;5.20;;;15.90;99.90;;;;;;4953909;28;20042;-79
2021/06/12 06:01:00;;;;;;;20.48;5.68;;;15.80;99.90;;;;;;4956654;28;20050;-79
2021/06/12 06:03:25;;;;;;;39.30;6.05;;;15.80;99.90;;;;;;4971408;28;20027;-79
2021/06/12 06:05:51;;;;;;;21.67;4.30;;;15.80;99.90;;;;;;4972046;28;20065;-79
2021/06/12 06:08:17;;;;;;;16.88;3.97;;;15.70;99.90;;;;;;4972764;28;20026;-80
2021/06/12 06:10:42;;;;;;;14.23;4.32;;;15.80;99.90;;;;;;4971774;28;20026;-79
2021/06/12 06:13:08;;;;;;;17.80;4.43;;;15.80;99.90;;;;;;4972977;28;20097;-79
2021/06/12 06:15:34;;;;;;;13.50;3.83;;;15.80;99.90;;;;;;4968133;28;20035;-79
2021/06/12 06:18:00;;;;;;;12.60;3.65;;;15.80;99.90;;;;;;4953413;28;20051;-80
2021/06/12 06:20:26;;;;;;;24.38;4.28;;;15.70;99.90;;;;;;4979089;28;20474;-79
2021/06/12 06:22:52;;;;;;;15.60;4.35;;;15.80;99.90;;;;;;4972820;28;20031;-80
2021/06/12 06:25:17;;;;;;;18.42;4.55;;;15.80;99.90;;;;;;4987283;28;20439;-79
2021/06/12 06:27:43;;;;;;;16.55;4.13;;;15.90;99.90;;;;;;4971506;28;20069;-79
2021/06/12 06:30:10;;;;;;;25.33;5.25;;;15.90;99.90;;;;;;4971622;28;20034;-80
2021/06/12 06:32:35;;;;;;;19.95;4.05;;;16.00;99.90;;;;;;4971415;28;20019;-80
2021/06/12 06:35:02;;;;;;;21.33;4.25;;;16.00;99.90;;;;;;4972599;28;20396;-79
2021/06/12 06:37:28;;;;;;;19.63;4.75;;;16.10;99.90;;;;;;4972191;28;20043;-79
2021/06/12 06:39:53;;;;;;;26.67;4.45;;;16.30;99.90;;;;;;4987620;28;20035;-79
2021/06/12 06:42:19;;;;;;;18.48;4.13;;;16.30;99.90;;;;;;4971479;28;20507;-79
2021/06/12 06:44:45;;;;;;;17.73;3.55;;;16.40;99.90;;;;;;4972446;28;20396;-79
2021/06/12 06:47:10;;;;;;;20.38;3.78;;;16.50;99.90;;;;;;4972234;28;20383;-79
2021/06/12 06:49:36;;;;;;;17.30;3.35;;;16.50;99.90;;;;;;4971340;28;20023;-79
2021/06/12 06:52:03;;;;;;;22.48;4.18;;;16.50;99.90;;;;;;4972622;28;20101;-79
2021/06/12 06:54:29;;;;;;;19.17;3.88;;;16.50;99.90;;;;;;4971208;28;20034;-79
2021/06/12 06:56:55;;;;;;;22.67;3.63;;;16.50;99.90;;;;;;4971039;28;20023;-79
2021/06/12 06:59:21;;;;;;;22.10;4.45;;;16.50;99.90;;;;;;4972592;28;20494;-79
2021/06/12 07:01:46;;;;;;;23.63;3.53;;;16.60;99.90;;;;;;4987530;28;20026;-79
2021/06/12 07:04:12;;;;;;;22.13;3.30;;;16.50;99.90;;;;;;4975346;28;20026;-78
2021/06/12 07:06:38;;;;;;;13.48;3.50;;;16.60;99.90;;;;;;4975581;28;20031;-78
2021/06/12 07:09:03;;;;;;;19.17;3.60;;;16.60;99.90;;;;;;4974657;28;20392;-79
2021/06/12 07:11:29;;;;;;;16.02;3.47;;;16.60;99.90;;;;;;4974815;28;20027;-79
2021/06/12 07:13:54;;;;;;;19.15;2.65;;;16.80;99.90;;;;;;4975678;28;20019;-79
2021/06/12 07:16:20;;;;;;;21.08;3.35;;;16.80;99.90;;;;;;4974635;28;20023;-78
2021/06/12 07:18:46;;;;;;;25.27;4.22;;;17.00;99.90;;;;;;4975428;28;20038;-78
2021/06/12 07:21:11;;;;;;;16.27;4.22;;;17.00;99.90;;;;;;4975899;28;20018;-78
2021/06/12 07:23:37;;;;;;;18.02;3.47;;;17.20;99.90;;;;;;4975877;28;20038;-79
2021/06/12 07:26:03;;;;;;;36.90;5.45;;;17.40;99.90;;;;;;4975545;28;20491;-79
2021/06/12 07:28:29;;;;;;;14.50;4.07;;;17.50;99.90;;;;;;4971017;28;20036;-79
2021/06/12 07:30:54;;;;;;;22.83;4.50;;;17.50;99.90;;;;;;4972048;28;20105;-79
2021/06/12 07:33:20;;;;;;;24.02;3.53;;;17.50;99.90;;;;;;4974438;28;20546;-79
2021/06/12 07:35:46;;;;;;;12.15;3.03;;;17.30;99.90;;;;;;4975296;28;20045;-78
2021/06/12 07:38:12;;;;;;;13.70;3.33;;;17.20;99.90;;;;;;4973733;28;20031;-79
2021/06/12 07:40:38;;;;;;;30.63;4.85;;;17.00;99.90;;;;;;4975344;28;20404;-81
2021/06/12 07:43:04;;;;;;;21.10;3.70;;;16.90;99.90;;;;;;4975221;28;20037;-81
2021/06/12 07:45:30;;;;;;;22.13;3.03;;;16.90;99.90;;;;;;4989970;28;20426;-80
2021/06/12 07:47:55;;;;;;;18.48;4.00;;;17.10;99.90;;;;;;4974861;28;20103;-81
2021/06/12 07:50:21;;;;;;;25.92;3.85;;;17.20;99.90;;;;;;4974107;28;20026;-80
2021/06/12 07:52:46;;;;;;;15.82;4.40;;;17.20;99.90;;;;;;4975194;28;20086;-80
2021/06/12 07:55:13;;;;;;;31.98;5.32;;;17.30;99.90;;;;;;4975096;28;20476;-80
2021/06/12 07:57:39;;;;;;;13.73;4.13;;;17.40;99.90;;;;;;4990168;28;20034;-80
2021/06/12 08:00:07;;;;;;;16.33;4.30;;;17.50;99.90;;;;;;4973156;28;20404;-80
2021/06/12 08:02:33;;;;;;;20.65;3.85;;;17.80;99.90;;;;;;4990090;28;20043;-81
2021/06/12 08:04:58;;;;;;;21.85;4.40;;;18.20;99.90;;;;;;4973473;28;20031;-80
2021/06/12 08:07:24;;;;;;;21.52;3.38;;;18.70;99.90;;;;;;4970420;28;20051;-81
2021/06/12 08:09:50;;;;;;;18.02;3.92;;;18.50;99.90;;;;;;4966533;28;20050;-80
2021/06/12 08:12:16;;;;;;;16.42;3.53;;;18.60;99.90;;;;;;4969191;28;20027;-81
2021/06/12 08:14:42;;;;;;;18.27;3.50;;;18.30;99.90;;;;;;4970065;28;20735;-81
2021/06/12 08:17:07;;;;;;;16.85;3.35;;;18.10;99.90;;;;;;4970589;28;20030;-79
2021/06/12 08:19:35;;;;;;;13.00;3.10;;;18.00;99.90;;;;;;4970167;28;20027;-80
2021/06/12 08:22:00;;;;;;;17.58;3.33;;;18.10;99.90;;;;;;4970674;28;20019;-81
2021/06/12 08:24:26;;;;;;;15.20;3.08;;;18.00;99.90;;;;;;4969074;28;20480;-81
2021/06/12 08:26:51;;;;;;;21.38;3.42;;;17.90;99.90;;;;;;4969982;28;20027;-82
2021/06/12 08:29:17;;;;;;;21.83;3.33;;;18.00;99.90;;;;;;4968871;28;20051;-81
2021/06/12 08:31:43;;;;;;;18.95;3.67;;;18.20;99.90;;;;;;4970303;28;20023;-82
2021/06/12 08:34:10;;;;;;;20.75;4.30;;;18.10;99.90;;;;;;4970224;28;20023;-80
2021/06/12 08:36:36;;;;;;;12.63;3.00;;;18.10;99.90;;;;;;4979096;28;20093;-81
2021/06/12 08:39:02;;;;;;;11.68;2.65;;;18.00;99.90;;;;;;4975090;28;20022;-80
2021/06/12 08:41:28;;;;;;;21.80;3.45;;;17.70;99.90;;;;;;4969074;28;20518;-79
2021/06/12 08:44:00;;;;;;;24.05;4.20;;;17.50;99.90;;;;;;4977169;28;20034;-79
2021/06/12 08:46:28;;;;;;;23.15;3.60;;;17.30;99.90;;;;;;4968908;28;20400;-79
2021/06/12 08:48:54;;;;;;;16.23;3.58;;;17.00;99.90;;;;;;4969083;28;20027;-79
2021/06/12 08:51:20;;;;;;;20.83;5.10;;;17.00;99.90;;;;;;4969241;28;20030;-79
2021/06/12 08:53:47;;;;;;;22.58;4.40;;;17.10;99.90;;;;;;4969904;28;20034;-78
2021/06/12 08:56:13;;;;;;;18.50;5.07;;;17.20;99.90;;;;;;4964236;28;20178;-78
2021/06/12 08:58:39;;;;;;;15.40;3.92;;;17.20;99.90;;;;;;4967440;28;20125;-79
2021/06/12 09:01:04;;;;;;;15.43;4.22;;;17.20;99.90;;;;;;4969100;28;20054;-78
2021/06/12 09:03:30;;;;;;;14.60;3.85;;;17.30;99.90;;;;;;4969706;28;20034;-79
2021/06/12 09:05:58;;;;;;;20.35;4.50;;;17.30;99.90;;;;;;4969407;28;20030;-79
2021/06/12 09:08:25;;;;;;;16.30;3.92;;;17.30;99.90;;;;;;4969253;28;20035;-78
2021/06/12 09:10:56;;;;;;;17.65;3.30;;;17.50;99.90;;;;;;4975594;28;20022;-79
2021/06/12 09:13:34;;;;;;;24.30;3.70;;;17.60;99.90;;;;;;4969032;28;20050;-79
2021/06/12 09:16:02;;;;;;;18.40;4.60;;;17.70;99.90;;;;;;4978624;28;20031;-80
2021/06/12 09:18:42;;;;;;;15.40;3.67;;;17.60;99.90;;;;;;4969051;28;20030;-80
2021/06/12 09:21:09;;;;;;;17.10;3.85;;;17.60;99.90;;;;;;4969974;28;20031;-79
2021/06/12 09:23:44;;;;;;;25.80;4.35;;;17.70;99.90;;;;;;4969421;28;20049;-79
2021/06/12 09:26:10;;;;;;;15.10;3.15;;;17.70;99.90;;;;;;4968223;28;20035;-79
2021/06/12 09:28:54;;;;;;;16.02;3.90;;;17.80;99.90;;;;;;4969126;28;20177;-79
2021/06/12 09:31:25;;;;;;;23.17;3.70;;;18.30;99.90;;;;;;4973284;28;20068;-78
2021/06/12 09:33:55;;;;;;;17.95;4.32;;;18.00;99.90;;;;;;4988222;28;20023;-79
2021/06/12 09:36:32;;;;;;;14.65;3.47;;;17.60;99.90;;;;;;4973150;28;20034;-79
2021/06/12 09:39:19;;;;;;;12.00;3.33;;;17.20;99.90;;;;;;4988047;28;20404;-78
2021/06/12 09:41:48;;;;;;;21.55;3.70;;;17.00;99.90;;;;;;4973447;28;20027;-79
2021/06/12 09:44:30;;;;;;;26.63;4.40;;;16.70;99.90;;;;;;4972964;28;20038;-79
2021/06/12 09:46:56;;;;;;;19.45;4.28;;;16.80;99.90;;;;;;4972018;28;20034;-79
2021/06/12 09:49:30;;;;;;;17.30;4.00;;;16.90;99.90;;;;;;4972994;28;20031;-79
2021/06/12 09:52:14;;;;;;;21.27;4.63;;;17.30;99.90;;;;;;4973263;28;20023;-79
2021/06/12 09:54:43;;;;;;;22.85;4.18;;;17.40;99.90;;;;;;4972968;28;20030;-78
2021/06/12 09:57:10;;;;;;;20.80;3.95;;;17.30;99.90;;;;;;4973220;28;20026;-79
2021/06/12 09:59:44;;;;;;;14.07;3.40;;;17.10;99.90;;;;;;4973147;28;20027;-79
2021/06/12 10:02:10;;;;;;;22.95;4.75;;;16.70;99.90;;;;;;4972851;28;20027;-79
2021/06/12 10:04:36;;;;;;;14.23;3.65;;;16.50;99.90;;;;;;4973022;28;20373;-79
2021/06/12 10:07:02;;;;;;;13.82;3.75;;;16.20;99.90;;;;;;4972873;28;20026;-79
2021/06/12 10:09:27;;;;;;;21.23;3.88;;;16.10;99.90;;;;;;4971509;28;20027;-79
2021/06/12 10:11:54;;;;;;;14.43;3.78;;;16.10;99.90;;;;;;4972484;28;20086;-78
2021/06/12 10:14:21;;;;;;;19.10;5.47;;;16.00;99.90;;;;;;4972763;28;20048;-79
2021/06/12 10:16:48;;;;;;;21.83;4.63;;;16.00;99.90;;;;;;4972972;28;20509;-79
2021/06/12 10:19:19;;;;;;;18.35;4.63;;;15.90;99.90;;;;;;4972708;28;20507;-80
2021/06/12 10:21:46;;;;;;;20.52;5.78;;;15.90;99.90;;;;;;4972538;28;20027;-79
2021/06/12 10:24:12;;;;;;;24.88;5.55;;;15.80;99.90;;;;;;4972724;28;20027;-79
2021/06/12 10:26:39;;;;;;;16.63;5.10;;;15.90;99.90;;;;;;4972848;28;20507;-79
2021/06/12 10:29:05;;;;;;;22.73;4.72;;;16.40;99.90;;;;;;4972707;28;20102;-79
2021/06/12 10:31:34;;;;;;;17.17;4.80;;;17.00;99.90;;;;;;4971371;28;20114;-79
2021/06/12 10:34:01;;;;;;;21.50;4.15;;;17.90;99.90;;;;;;4967985;28;20055;-80
2021/06/12 10:36:34;;;;;;;17.15;3.72;;;18.40;99.90;;;;;;4952656;28;20042;-79
2021/06/12 10:39:01;;;;;;;19.77;4.45;;;18.60;99.90;;;;;;4956100;28;20104;-79
2021/06/12 10:41:31;;;;;;;18.85;4.70;;;18.60;99.90;;;;;;4963812;28;20034;-79
2021/06/12 10:43:59;;;;;;;11.32;3.70;;;18.00;99.90;;;;;;4976302;28;20038;-79
2021/06/12 10:46:27;;;;;;;14.48;4.55;;;17.70;99.90;;;;;;4976541;28;20031;-79
2021/06/12 10:48:56;;;;;;;24.98;5.43;;;17.30;99.90;;;;;;4976240;28;20030;-79
2021/06/12 10:51:24;;;;;;;18.33;4.70;;;17.00;99.90;;;;;;4973706;28;20023;-79
2021/06/12 10:54:09;;;;;;;26.63;5.25;;;16.60;99.90;;;;;;4956954;28;20031;-79
2021/06/12 10:56:39;;;;;;;18.88;6.05;;;16.00;99.90;;;;;;4957225;28;20019;-78
2021/06/12 10:59:07;;;;;;;19.45;6.10;;;15.60;99.90;;;;;;4956831;28;20031;-78
2021/06/12 11:01:33;;;;;;;21.33;6.82;;;15.40;99.90;;;;;;4958338;28;20027;-77
2021/06/12 11:04:18;;;;;;;16.98;6.72;;;15.30;99.90;;;;;;4976025;28;20023;-79
2021/06/12 11:09:17;;;;;;;23.95;6.30;;;15.00;99.90;;;;;;4975932;28;20443;-78
2021/06/12 11:11:51;;;;;;;20.77;7.20;;;15.00;99.90;;;;;;4975817;28;20030;-78
2021/06/12 11:14:25;;;;;;;18.98;6.63;;;15.10;99.90;;;;;;4956520;28;20480;-78
2021/06/12 11:17:12;;;;;;;22.08;7.20;;;15.20;99.90;;;;;;4973558;28;20575;-78
2021/06/12 11:19:49;;;;;;;25.63;7.03;;;15.90;99.90;;;;;;4975904;28;20483;-77
2021/06/12 11:22:37;;;;;;;19.50;7.13;;;16.40;99.90;;;;;;4975552;28;20037;-79
2021/06/12 11:25:09;;;;;;;16.35;4.95;;;17.00;99.90;;;;;;4974303;28;20026;-79
2021/06/12 11:27:38;;;;;;;17.98;5.03;;;17.10;99.90;;;;;;4973853;28;20578;-79
2021/06/12 11:32:56;;;;;;;12.52;4.43;;;16.70;99.90;;;;;;4974016;28;20391;-78
2021/06/12 11:35:42;;;;;;;20.38;5.22;;;16.70;99.90;;;;;;4975453;28;20098;-79
2021/06/12 11:38:14;;;;;;;16.00;3.75;;;16.70;99.90;;;;;;4974247;28;20089;-79
2021/06/12 11:40:53;;;;;;;16.10;3.63;;;17.30;99.90;;;;;;4975618;28;20034;-79
2021/06/12 11:43:32;;;;;;;16.77;4.43;;;17.60;99.90;;;;;;4975215;28;20113;-79
2021/06/12 11:45:58;;;;;;;21.08;4.72;;;17.60;99.90;;;;;;4975240;28;20070;-78
2021/06/12 11:48:25;;;;;;;26.45;4.47;;;18.20;99.90;;;;;;4974506;28;20090;-78
2021/06/12 11:50:51;;;;;;;20.08;4.22;;;18.40;99.90;;;;;;4975273;28;20019;-78
2021/06/12 11:53:19;;;;;;;13.85;3.42;;;18.30;99.90;;;;;;4975124;28;20066;-79
2021/06/12 11:55:46;;;;;;;12.23;3.65;;;18.10;99.90;;;;;;4972028;28;20018;-79
2021/06/12 11:58:11;;;;;;;11.52;3.28;;;18.10;99.90;;;;;;4971634;28;20062;-79
2021/06/12 12:00:40;;;;;;;16.50;3.50;;;18.10;99.90;;;;;;4971100;28;20062;-79
2021/06/12 12:03:14;;;;;;;18.23;3.60;;;17.80;99.90;;;;;;4970514;28;20035;-79
2021/06/12 12:05:49;;;;;;;13.88;4.15;;;17.40;99.90;;;;;;4972365;28;20077;-79
2021/06/12 12:08:17;;;;;;;15.60;3.47;;;17.30;99.90;;;;;;4974698;28;20457;-79
2021/06/12 12:10:53;;;;;;;16.40;3.53;;;17.10;99.90;;;;;;4989778;28;20069;-79
2021/06/12 12:13:37;;;;;;;24.35;5.05;;;17.00;99.90;;;;;;4975086;28;20084;-79
2021/06/12 12:16:17;;;;;;;21.95;5.53;;;16.70;99.90;;;;;;4974290;28;20038;-79
2021/06/12 12:18:48;;;;;;;18.55;4.05;;;16.30;99.90;;;;;;4974766;28;20054;-78
2021/06/12 12:21:13;;;;;;;22.35;4.13;;;16.20;99.90;;;;;;4973565;28;20109;-79
2021/06/12 12:23:39;;;;;;;21.23;4.50;;;16.30;99.90;;;;;;4974511;28;20122;-79
2021/06/12 12:26:15;;;;;;;21.88;4.32;;;16.30;99.90;;;;;;4974306;28;20019;-79
2021/06/12 12:28:59;;;;;;;19.50;4.10;;;16.30;99.90;;;;;;4969967;28;20630;-80
2021/06/12 12:31:26;;;;;;;18.83;5.25;;;16.30;99.90;;;;;;4970189;28;20471;-79
2021/06/12 12:33:53;;;;;;;20.65;5.30;;;16.00;99.90;;;;;;4969923;28;20070;-79
2021/06/12 12:36:20;;;;;;;23.13;5.75;;;15.70;99.90;;;;;;4985354;28;20408;-80
2021/06/12 12:39:00;;;;;;;28.15;7.30;;;15.30;99.90;;;;;;4970305;28;20022;-80
2021/06/12 12:41:27;;;;;;;21.35;6.40;;;15.10;99.90;;;;;;4969765;28;20061;-79
2021/06/12 12:44:17;;;;;;;30.27;6.85;;;15.10;99.90;;;;;;4985194;28;20082;-79